createdAt,value
2015-03-22T10:35:36.336Z,102360
2015-03-22T10:35:49.711Z,102366
2015-03-22T10:36:02.993Z,102357
2015-03-22T10:36:16.274Z,102363
2015-03-22T10:36:29.635Z,102351
2015-03-22T10:36:46.026Z,102354
2015-03-22T10:37:01.276Z,102354
2015-03-22T10:37:15.729Z,102347
2015-03-22T10:37:29.201Z,102360
2015-03-22T10:37:44.498Z,102351
2015-03-22T10:37:58.748Z,102354
2015-03-22T10:38:19.998Z,102344
2015-03-22T10:38:45.531Z,102347
2015-03-22T10:39:06.468Z,102338
2015-03-22T10:39:20.937Z,102347
2015-03-22T10:39:35.173Z,102332
2015-03-22T10:39:48.439Z,102347
2015-03-22T10:40:01.455Z,102341
2015-03-22T10:40:14.736Z,102348
2015-03-22T10:40:28.002Z,102345
2015-03-22T10:40:41.083Z,102351
2015-03-22T10:40:54.301Z,102335
2015-03-22T10:41:07.645Z,102338
2015-03-22T10:41:20.833Z,102341
2015-03-22T10:41:33.913Z,102348
2015-03-22T10:41:47.257Z,102338
2015-03-22T10:42:01.632Z,102335
2015-03-22T10:42:15.147Z,102344
2015-03-22T10:42:28.335Z,102341
2015-03-22T10:42:41.494Z,102341
2015-03-22T10:42:54.994Z,102335
2015-03-22T10:43:09.463Z,102338
2015-03-22T10:43:22.619Z,102353
2015-03-22T10:43:37.652Z,102338
2015-03-22T10:43:51.012Z,102341
2015-03-22T10:44:04.715Z,102341
2015-03-22T10:44:19.012Z,102341
2015-03-22T10:44:32.717Z,102338
2015-03-22T10:44:45.826Z,102338
2015-03-22T10:44:59.623Z,102341
2015-03-22T10:45:12.951Z,102334
2015-03-22T10:45:26.420Z,102344
2015-03-22T10:45:39.609Z,102344
2015-03-22T10:45:52.703Z,102323
2015-03-22T10:46:06.047Z,102332
2015-03-22T10:46:19.375Z,102334
2015-03-22T10:46:32.455Z,102317
2015-03-22T10:46:45.721Z,102334
2015-03-22T10:46:59.361Z,102343
2015-03-22T10:47:13.377Z,102343
2015-03-22T10:47:26.674Z,102329
2015-03-22T10:47:40.177Z,102332
2015-03-22T10:47:53.442Z,102350
2015-03-22T10:48:06.708Z,102329
2015-03-22T10:48:19.849Z,102326
2015-03-22T10:48:33.194Z,102334
2015-03-22T10:48:47.257Z,102323
2015-03-22T10:49:00.398Z,102332
2015-03-22T10:49:22.913Z,102326
2015-03-22T10:49:44.028Z,102332
2015-03-22T10:50:11.199Z,102329
2015-03-22T10:50:31.246Z,102338
2015-03-22T10:50:51.292Z,102326
2015-03-22T10:51:11.135Z,102323
2015-03-22T10:51:30.963Z,102329
2015-03-22T10:51:56.917Z,102331
2015-03-22T10:52:17.058Z,102340
2015-03-22T10:52:35.759Z,102336
2015-03-22T10:52:53.243Z,102331
2015-03-22T10:53:11.822Z,102333
2015-03-22T10:53:30.306Z,102328
2015-03-22T10:53:49.054Z,102332
2015-03-22T10:54:07.226Z,102332
2015-03-22T10:54:25.804Z,102334
2015-03-22T10:54:41.286Z,102332
2015-03-22T10:54:54.817Z,102332
2015-03-22T10:55:07.958Z,102323
2015-03-22T10:55:21.317Z,102334
2015-03-22T10:55:34.544Z,102329
2015-03-22T10:55:47.763Z,102320
2015-03-22T10:56:01.060Z,102332
2015-03-22T10:56:14.263Z,102332
2015-03-22T10:56:27.638Z,102344
2015-03-22T10:56:41.175Z,102335
2015-03-22T10:56:54.300Z,102341
2015-03-22T10:57:07.613Z,102320
2015-03-22T10:57:21.081Z,102330
2015-03-22T10:57:34.331Z,102347
2015-03-22T10:57:47.683Z,102323
2015-03-22T10:58:01.042Z,102335
2015-03-22T10:58:14.417Z,102338
2015-03-22T10:58:27.730Z,102335
2015-03-22T10:58:40.783Z,102327
2015-03-22T10:58:54.095Z,102327
2015-03-22T10:59:07.486Z,102339
2015-03-22T10:59:20.720Z,102332
2015-03-22T10:59:33.955Z,102327
2015-03-22T10:59:47.398Z,102336
2015-03-22T11:00:00.742Z,102342
2015-03-22T11:00:13.883Z,102333
2015-03-22T11:00:27.320Z,102331
2015-03-22T11:00:40.638Z,102333
2015-03-22T11:00:53.841Z,102336
2015-03-22T11:01:07.231Z,102336
2015-03-22T11:01:20.388Z,102339
2015-03-22T11:01:33.763Z,102336
2015-03-22T11:01:47.062Z,102336
2015-03-22T11:02:00.234Z,102337
2015-03-22T11:02:13.625Z,102337
2015-03-22T11:02:26.953Z,102331
2015-03-22T11:02:40.113Z,102325
2015-03-22T11:02:53.629Z,102328
2015-03-22T11:03:07.066Z,102340
2015-03-22T11:03:20.207Z,102343
2015-03-22T11:03:33.473Z,102319
2015-03-22T11:03:46.977Z,102331
2015-03-22T11:04:07.367Z,102328
2015-03-22T11:04:20.742Z,102342
2015-03-22T11:04:33.914Z,102336
2015-03-22T11:04:54.448Z,102327
2015-03-22T11:05:07.714Z,102333
2015-03-22T11:05:20.902Z,102328
2015-03-22T11:05:34.198Z,102328
2015-03-22T11:05:47.624Z,102327
2015-03-22T11:06:00.671Z,102332
2015-03-22T11:06:13.937Z,102324
2015-03-22T11:06:27.327Z,102323
2015-03-22T11:06:40.643Z,102327
2015-03-22T11:06:53.830Z,102332
2015-03-22T11:07:07.143Z,102323
2015-03-22T11:07:20.409Z,102320
2015-03-22T11:07:33.846Z,102317
2015-03-22T11:07:46.958Z,102311
2015-03-22T11:08:00.240Z,102311
2015-03-22T11:08:13.833Z,102308
2015-03-22T11:08:27.599Z,102318
2015-03-22T11:08:40.805Z,102315
2015-03-22T11:08:54.196Z,102324
2015-03-22T11:09:07.446Z,102315
2015-03-22T11:09:20.665Z,102321
2015-03-22T11:09:34.227Z,102319
2015-03-22T11:09:47.496Z,102322
2015-03-22T11:10:00.855Z,102313
2015-03-22T11:10:14.027Z,102322
2015-03-22T11:10:27.230Z,102316
2015-03-22T11:10:40.591Z,102328
2015-03-22T11:10:53.826Z,102328
2015-03-22T11:11:07.076Z,102312
2015-03-22T11:11:20.420Z,102321
2015-03-22T11:11:33.701Z,102318
2015-03-22T11:11:46.829Z,102312
2015-03-22T11:12:00.188Z,102309
2015-03-22T11:12:13.594Z,102312
2015-03-22T11:12:26.719Z,102306
2015-03-22T11:12:40.016Z,102322
2015-03-22T11:12:53.253Z,102312
2015-03-22T11:13:06.643Z,102306
2015-03-22T11:13:20.003Z,102300
2015-03-22T11:13:33.206Z,102325
2015-03-22T11:13:46.723Z,102313
2015-03-22T11:14:00.114Z,102319
2015-03-22T11:14:13.223Z,102316
2015-03-22T11:14:26.473Z,102313
2015-03-22T11:14:39.864Z,102316
2015-03-22T11:14:53.054Z,102313
2015-03-22T11:15:06.335Z,102301
2015-03-22T11:15:19.882Z,102317
2015-03-22T11:15:33.132Z,102317
2015-03-22T11:15:46.338Z,102301
2015-03-22T11:15:59.760Z,102298
2015-03-22T11:16:13.275Z,102307
2015-03-22T11:16:26.885Z,102317
2015-03-22T11:16:51.527Z,102301
2015-03-22T11:17:32.934Z,102308
2015-03-22T11:18:25.982Z,102314
2015-03-22T11:19:15.079Z,102305
2015-03-22T11:19:57.831Z,102311
2015-03-22T11:20:10.956Z,102295
2015-03-22T11:20:24.237Z,102314
2015-03-22T11:20:37.831Z,102317
2015-03-22T11:20:51.052Z,102311
2015-03-22T11:21:04.286Z,102301
2015-03-22T11:21:17.396Z,102301
2015-03-22T11:21:30.818Z,102298
2015-03-22T11:21:44.132Z,102301
2015-03-22T11:21:57.320Z,102304
2015-03-22T11:22:10.648Z,102298
2015-03-22T11:22:24.070Z,102311
2015-03-22T11:22:37.116Z,102301
2015-03-22T11:22:50.307Z,102304
2015-03-22T11:23:11.010Z,102295
2015-03-22T11:23:24.260Z,102292
2015-03-22T11:23:37.432Z,102311
2015-03-22T11:23:50.763Z,102298
2015-03-22T11:24:11.201Z,102292
2015-03-22T11:24:24.654Z,102283
2015-03-22T11:24:37.763Z,102292
2015-03-22T11:24:51.045Z,102295
2015-03-22T11:25:04.467Z,102298
2015-03-22T11:25:17.717Z,102295
2015-03-22T11:25:30.952Z,102292
2015-03-22T11:25:44.436Z,102295
2015-03-22T11:25:57.814Z,102295
2015-03-22T11:26:10.876Z,102301
2015-03-22T11:26:24.298Z,102283
2015-03-22T11:26:37.626Z,102289
2015-03-22T11:26:50.988Z,102292
2015-03-22T11:27:04.113Z,102283
2015-03-22T11:27:17.238Z,102299
2015-03-22T11:27:30.613Z,102295
2015-03-22T11:27:43.910Z,102299
2015-03-22T11:27:57.085Z,102280
2015-03-22T11:28:10.460Z,102289
2015-03-22T11:28:23.866Z,102293
2015-03-22T11:28:36.991Z,102286
2015-03-22T11:28:50.321Z,102286
2015-03-22T11:29:03.696Z,102286
2015-03-22T11:29:16.837Z,102286
2015-03-22T11:29:30.165Z,102286
2015-03-22T11:29:43.415Z,102283
2015-03-22T11:29:56.839Z,102280
2015-03-22T11:30:10.214Z,102293
2015-03-22T11:30:23.479Z,102280
2015-03-22T11:30:36.792Z,102286
2015-03-22T11:30:50.123Z,102277
2015-03-22T11:31:03.248Z,102280
2015-03-22T11:31:16.513Z,102280
2015-03-22T11:31:37.154Z,102277
2015-03-22T11:31:50.187Z,102274
2015-03-22T11:32:03.500Z,102283
2015-03-22T11:32:16.953Z,102280
2015-03-22T11:32:30.109Z,102277
2015-03-22T11:32:43.500Z,102283
2015-03-22T11:33:11.033Z,102286
2015-03-22T11:33:24.346Z,102287
2015-03-22T11:33:37.799Z,102287
2015-03-22T11:33:50.988Z,102274
2015-03-22T11:34:04.348Z,102280
2015-03-22T11:34:17.785Z,102280
2015-03-22T11:34:30.941Z,102274
2015-03-22T11:34:44.066Z,102287
2015-03-22T11:34:57.585Z,102283
2015-03-22T11:35:10.772Z,102277
2015-03-22T11:35:23.960Z,102271
2015-03-22T11:35:37.241Z,102277
2015-03-22T11:35:50.556Z,102280
2015-03-22T11:36:03.915Z,102280
2015-03-22T11:36:17.181Z,102287
2015-03-22T11:36:30.446Z,102274
2015-03-22T11:36:43.931Z,102277
2015-03-22T11:36:57.277Z,102280
2015-03-22T11:37:10.465Z,102271
2015-03-22T11:37:23.918Z,102287
2015-03-22T11:37:37.231Z,102280
2015-03-22T11:37:50.311Z,102293
2015-03-22T11:38:03.701Z,102274
2015-03-22T11:38:17.076Z,102274
2015-03-22T11:38:30.436Z,102274
2015-03-22T11:38:43.764Z,102277
2015-03-22T11:38:56.969Z,102280
2015-03-22T11:39:10.438Z,102280
2015-03-22T11:39:23.750Z,102274
2015-03-22T11:39:36.875Z,102276
2015-03-22T11:39:50.205Z,102263
2015-03-22T11:40:03.424Z,102288
2015-03-22T11:40:16.518Z,102284
2015-03-22T11:40:29.768Z,102274
2015-03-22T11:40:43.143Z,102283
2015-03-22T11:40:56.379Z,102273
2015-03-22T11:41:09.645Z,102273
2015-03-22T11:41:23.114Z,102270
2015-03-22T11:41:36.285Z,102276
2015-03-22T11:41:49.523Z,102288
2015-03-22T11:42:03.054Z,102278
2015-03-22T11:42:16.304Z,102282
2015-03-22T11:42:29.429Z,102278
2015-03-22T11:42:42.773Z,102272
2015-03-22T11:42:56.056Z,102282
2015-03-22T11:43:09.134Z,102282
2015-03-22T11:43:22.494Z,102276
2015-03-22T11:43:35.712Z,102264
2015-03-22T11:43:48.839Z,102264
2015-03-22T11:44:02.089Z,102280
2015-03-22T11:44:15.230Z,102271
2015-03-22T11:44:28.480Z,102274
2015-03-22T11:44:41.746Z,102268
2015-03-22T11:44:54.858Z,102271
2015-03-22T11:45:08.108Z,102278
2015-03-22T11:45:21.452Z,102275
2015-03-22T11:45:34.608Z,102262
2015-03-22T11:45:47.858Z,102275
2015-03-22T11:46:01.235Z,102263
2015-03-22T11:46:14.422Z,102266
2015-03-22T11:46:27.672Z,102248
2015-03-22T11:46:41.016Z,102266
2015-03-22T11:46:54.254Z,102254
2015-03-22T11:47:07.644Z,102269
2015-03-22T11:47:20.925Z,102257
2015-03-22T11:47:34.269Z,102257
2015-03-22T11:47:47.785Z,102266
2015-03-22T11:48:00.943Z,102276
2015-03-22T11:48:15.318Z,102263
2015-03-22T11:48:28.771Z,102270
2015-03-22T11:48:43.131Z,102257
2015-03-22T11:48:56.414Z,102260
2015-03-22T11:49:12.383Z,102273
2015-03-22T11:49:27.789Z,102270
2015-03-22T11:49:40.961Z,102273
2015-03-22T11:49:54.354Z,102267
2015-03-22T11:50:08.089Z,102264
2015-03-22T11:50:22.854Z,102267
2015-03-22T11:50:36.042Z,102264
2015-03-22T11:50:49.198Z,102264
2015-03-22T11:51:02.575Z,102248
2015-03-22T11:51:16.872Z,102264
2015-03-22T11:51:30.091Z,102261
2015-03-22T11:51:44.169Z,102261
2015-03-22T11:51:57.593Z,102264
2015-03-22T11:52:10.733Z,102274
2015-03-22T11:52:24.140Z,102267
2015-03-22T11:52:37.546Z,102258
2015-03-22T11:52:50.843Z,102261
2015-03-22T11:53:03.954Z,102261
2015-03-22T11:53:17.048Z,102255
2015-03-22T11:53:30.470Z,102261
2015-03-22T11:53:43.751Z,102258
2015-03-22T11:53:56.973Z,102262
2015-03-22T11:54:10.285Z,102262
2015-03-22T11:54:23.754Z,102265
2015-03-22T11:54:36.941Z,102249
2015-03-22T11:54:50.270Z,102274
2015-03-22T11:55:03.631Z,102262
2015-03-22T11:55:16.897Z,102265
2015-03-22T11:55:30.147Z,102265
2015-03-22T11:55:43.334Z,102271
2015-03-22T11:55:56.775Z,102258
2015-03-22T11:56:10.181Z,102265
2015-03-22T11:56:23.415Z,102274
2015-03-22T11:56:40.868Z,102265
2015-03-22T11:56:54.337Z,102265
2015-03-22T11:57:07.417Z,102268
2015-03-22T11:57:20.683Z,102253
2015-03-22T11:57:34.011Z,102256
2015-03-22T11:57:47.183Z,102268
2015-03-22T11:58:00.435Z,102262
2015-03-22T11:58:18.091Z,102262
2015-03-22T11:58:32.950Z,102271
2015-03-22T11:58:46.325Z,102265
2015-03-22T11:58:59.374Z,102262
2015-03-22T11:59:12.515Z,102255
2015-03-22T11:59:25.937Z,102258
2015-03-22T11:59:39.156Z,102271
2015-03-22T11:59:52.249Z,102265
2015-03-22T12:00:05.627Z,102274
2015-03-22T12:00:18.955Z,102271
2015-03-22T12:00:32.096Z,102256
2015-03-22T12:00:45.643Z,102281
2015-03-22T12:00:58.832Z,102262
2015-03-22T12:01:11.911Z,102278
2015-03-22T12:01:25.254Z,102278
2015-03-22T12:01:38.317Z,102278
2015-03-22T12:01:51.676Z,102275
2015-03-22T12:02:04.850Z,102272
2015-03-22T12:02:17.928Z,102275
2015-03-22T12:02:31.350Z,102269
2015-03-22T12:02:44.600Z,102272
2015-03-22T12:02:57.744Z,102272
2015-03-22T12:03:11.556Z,102275
2015-03-22T12:03:24.916Z,102263
2015-03-22T12:03:37.994Z,102275
2015-03-22T12:03:51.212Z,102278
2015-03-22T12:04:04.621Z,102275
2015-03-22T12:04:17.652Z,102269
2015-03-22T12:04:30.855Z,102269
2015-03-22T12:04:44.230Z,102269
2015-03-22T12:04:57.451Z,102275
2015-03-22T12:05:10.513Z,102269
2015-03-22T12:05:23.951Z,102282
2015-03-22T12:05:37.123Z,102263
2015-03-22T12:05:50.295Z,102263
2015-03-22T12:06:03.656Z,102260
2015-03-22T12:06:16.922Z,102266
2015-03-22T12:06:30.015Z,102276
2015-03-22T12:06:50.578Z,102270
2015-03-22T12:07:03.971Z,102266
2015-03-22T12:07:17.065Z,102270
2015-03-22T12:07:30.331Z,102270
2015-03-22T12:07:43.409Z,102276
2015-03-22T12:07:56.831Z,102260
2015-03-22T12:08:10.083Z,102267
2015-03-22T12:08:23.161Z,102264
2015-03-22T12:08:37.473Z,102270
2015-03-22T12:08:50.802Z,102276
2015-03-22T12:09:03.930Z,102260
2015-03-22T12:09:17.289Z,102279
2015-03-22T12:09:30.726Z,102257
2015-03-22T12:09:44.070Z,102276
2015-03-22T12:09:57.367Z,102273
2015-03-22T12:10:10.541Z,102263
2015-03-22T12:10:23.916Z,102273
2015-03-22T12:10:37.213Z,102266
2015-03-22T12:10:50.307Z,102266
2015-03-22T12:11:03.621Z,102254
2015-03-22T12:11:16.918Z,102251
2015-03-22T12:11:30.012Z,102270
2015-03-22T12:11:43.355Z,102254
2015-03-22T12:11:56.684Z,102260
2015-03-22T12:12:09.937Z,102266
2015-03-22T12:12:23.124Z,102263
2015-03-22T12:12:36.468Z,102257
2015-03-22T12:12:49.733Z,102266
2015-03-22T12:13:03.204Z,102254
2015-03-22T12:13:16.376Z,102245
2015-03-22T12:13:29.610Z,102260
2015-03-22T12:13:42.954Z,102251
2015-03-22T12:13:56.110Z,102266
2015-03-22T12:14:09.379Z,102260
2015-03-22T12:14:22.863Z,102254
2015-03-22T12:14:36.207Z,102263
2015-03-22T12:14:49.332Z,102276
2015-03-22T12:15:02.631Z,102254
2015-03-22T12:15:15.959Z,102254
2015-03-22T12:15:29.069Z,102257
2015-03-22T12:15:42.475Z,102272
2015-03-22T12:15:55.569Z,102260
2015-03-22T12:16:09.038Z,102263
2015-03-22T12:16:22.273Z,102263
2015-03-22T12:16:35.460Z,102260
2015-03-22T12:16:48.726Z,102259
2015-03-22T12:17:02.026Z,102252
2015-03-22T12:17:15.260Z,102264
2015-03-22T12:17:28.588Z,102241
2015-03-22T12:17:41.963Z,102249
2015-03-22T12:17:55.119Z,102264
2015-03-22T12:18:08.419Z,102258
2015-03-22T12:18:21.763Z,102249
2015-03-22T12:18:34.685Z,102261
2015-03-22T12:18:47.701Z,102249
2015-03-22T12:19:00.544Z,102258
2015-03-22T12:19:13.593Z,102268
2015-03-22T12:19:26.624Z,102249
2015-03-22T12:19:39.453Z,102249
2015-03-22T12:19:52.453Z,102256
2015-03-22T12:20:05.564Z,102253
2015-03-22T12:20:18.439Z,102250
2015-03-22T12:20:38.580Z,102254
2015-03-22T12:20:51.673Z,102251
2015-03-22T12:21:04.613Z,102251
2015-03-22T12:21:17.519Z,102258
2015-03-22T12:21:30.519Z,102255
2015-03-22T12:21:43.535Z,102258
2015-03-22T12:21:56.628Z,102255
2015-03-22T12:22:09.505Z,102252
2015-03-22T12:22:22.474Z,102252
2015-03-22T12:22:35.599Z,102262
2015-03-22T12:22:48.521Z,102258
2015-03-22T12:23:01.459Z,102259
2015-03-22T12:23:14.633Z,102252
2015-03-22T12:23:27.602Z,102249
2015-03-22T12:23:40.462Z,102256
2015-03-22T12:23:53.571Z,102250
2015-03-22T12:24:06.573Z,102250
2015-03-22T12:24:19.589Z,102250
2015-03-22T12:24:32.495Z,102250
2015-03-22T12:24:45.417Z,102253
2015-03-22T12:24:58.495Z,102250
2015-03-22T12:25:11.451Z,102266
2015-03-22T12:25:24.326Z,102269
2015-03-22T12:25:37.435Z,102259
2015-03-22T12:25:50.435Z,102250
2015-03-22T12:26:03.327Z,102250
2015-03-22T12:26:16.389Z,102263
2015-03-22T12:26:29.452Z,102253
2015-03-22T12:26:42.311Z,102254
2015-03-22T12:26:55.327Z,102247
2015-03-22T12:27:08.502Z,102247
2015-03-22T12:27:21.377Z,102254
2015-03-22T12:27:34.361Z,102260
2015-03-22T12:27:47.564Z,102251
2015-03-22T12:28:00.455Z,102251
2015-03-22T12:28:13.348Z,102254
2015-03-22T12:28:26.488Z,102244
2015-03-22T12:28:39.441Z,102254
2015-03-22T12:28:52.301Z,102241
2015-03-22T12:29:05.444Z,102241
2015-03-22T12:29:18.444Z,102241
2015-03-22T12:29:31.304Z,102232
2015-03-22T12:29:44.444Z,102257
2015-03-22T12:29:57.351Z,102241
2015-03-22T12:30:10.493Z,102251
2015-03-22T12:30:23.446Z,102242
2015-03-22T12:30:36.306Z,102244
2015-03-22T12:30:49.446Z,102254
2015-03-22T12:31:02.493Z,102235
2015-03-22T12:31:15.371Z,102238
2015-03-22T12:31:28.465Z,102245
2015-03-22T12:31:41.527Z,102251
2015-03-22T12:31:54.371Z,102242
2015-03-22T12:32:07.389Z,102248
2015-03-22T12:32:20.514Z,102251
2015-03-22T12:32:33.404Z,102245
2015-03-22T12:32:46.389Z,102254
2015-03-22T12:32:59.170Z,102245
2015-03-22T12:33:12.266Z,102241
2015-03-22T12:33:25.328Z,102245
2015-03-22T12:33:38.172Z,102242
2015-03-22T12:33:51.172Z,102245
2015-03-22T12:34:04.300Z,102260
2015-03-22T12:34:17.128Z,102248
2015-03-22T12:34:30.081Z,102245
2015-03-22T12:34:43.222Z,102248
2015-03-22T12:34:56.144Z,102245
2015-03-22T12:35:09.083Z,102251
2015-03-22T12:35:22.083Z,102239
2015-03-22T12:35:35.115Z,102232
2015-03-22T12:35:48.240Z,102242
2015-03-22T12:36:01.099Z,102239
2015-03-22T12:36:14.054Z,102236
2015-03-22T12:36:27.163Z,102236
2015-03-22T12:36:40.163Z,102242
2015-03-22T12:36:52.992Z,102236
2015-03-22T12:37:06.119Z,102236
2015-03-22T12:37:19.119Z,102236
2015-03-22T12:37:32.025Z,102233
2015-03-22T12:37:45.134Z,102233
2015-03-22T12:37:58.134Z,102220
2015-03-22T12:38:11.137Z,102236
2015-03-22T12:38:24.028Z,102214
2015-03-22T12:38:37.559Z,102220
2015-03-22T12:38:50.700Z,102230
2015-03-22T12:39:03.655Z,102223
2015-03-22T12:39:16.545Z,102230
2015-03-22T12:39:29.670Z,102230
2015-03-22T12:39:42.702Z,102227
2015-03-22T12:39:55.545Z,102217
2015-03-22T12:40:08.594Z,102220
2015-03-22T12:40:21.657Z,102217
2015-03-22T12:40:34.516Z,102217
2015-03-22T12:40:47.594Z,102217
2015-03-22T12:41:00.501Z,102217
2015-03-22T12:41:13.612Z,102220
2015-03-22T12:41:26.674Z,102214
2015-03-22T12:41:39.596Z,102230
2015-03-22T12:41:52.706Z,102224
2015-03-22T12:42:05.817Z,102217
2015-03-22T12:42:18.676Z,102224
2015-03-22T12:42:31.708Z,102227
2015-03-22T12:42:44.817Z,102211
2015-03-22T12:42:57.708Z,102211
2015-03-22T12:43:10.679Z,102217
2015-03-22T12:43:23.804Z,102202
2015-03-22T12:43:36.742Z,102208
2015-03-22T12:43:49.820Z,102211
2015-03-22T12:44:02.726Z,102211
2015-03-22T12:44:15.761Z,102205
2015-03-22T12:44:28.854Z,102212
2015-03-22T12:44:41.729Z,102205
2015-03-22T12:44:54.729Z,102215
2015-03-22T12:45:07.841Z,102196
2015-03-22T12:45:20.809Z,102205
2015-03-22T12:45:33.716Z,102202
2015-03-22T12:45:46.919Z,102196
2015-03-22T12:45:59.888Z,102208
2015-03-22T12:46:12.733Z,102205
2015-03-22T12:46:25.780Z,102199
2015-03-22T12:46:38.749Z,102199
2015-03-22T12:46:51.936Z,102209
2015-03-22T12:47:04.861Z,102205
2015-03-22T12:47:17.768Z,102199
2015-03-22T12:47:30.924Z,102196
2015-03-22T12:47:43.908Z,102212
2015-03-22T12:47:56.830Z,102206
2015-03-22T12:48:09.956Z,102203
2015-03-22T12:48:22.972Z,102199
2015-03-22T12:48:35.878Z,102199
2015-03-22T12:48:48.972Z,102193
2015-03-22T12:49:02.112Z,102196
2015-03-22T12:49:15.584Z,102196
2015-03-22T12:49:35.803Z,102188
2015-03-22T12:49:49.037Z,102196
2015-03-22T12:50:02.350Z,102209
2015-03-22T12:50:15.320Z,102191
2015-03-22T12:50:28.445Z,102209
2015-03-22T12:50:41.352Z,102199
2015-03-22T12:50:54.242Z,102199
2015-03-22T12:51:07.338Z,102199
2015-03-22T12:51:20.307Z,102193
2015-03-22T12:51:33.182Z,102196
2015-03-22T12:51:46.307Z,102196
2015-03-22T12:51:59.338Z,102209
2015-03-22T12:52:12.372Z,102202
2015-03-22T12:52:25.310Z,102209
2015-03-22T12:52:38.247Z,102212
2015-03-22T12:52:51.372Z,102212
2015-03-22T12:53:04.343Z,102199
2015-03-22T12:53:17.187Z,102199
2015-03-22T12:53:30.296Z,102206
2015-03-22T12:53:43.296Z,102205
2015-03-22T12:53:56.156Z,102212
2015-03-22T12:54:09.173Z,102212
2015-03-22T12:54:22.220Z,102218
2015-03-22T12:54:35.095Z,102212
2015-03-22T12:54:48.111Z,102202
2015-03-22T12:55:01.017Z,102226
2015-03-22T12:55:14.129Z,102222
2015-03-22T12:55:27.176Z,102208
2015-03-22T12:55:40.051Z,102203
2015-03-22T12:55:53.129Z,102218
2015-03-22T12:56:06.256Z,102205
2015-03-22T12:56:19.100Z,102223
2015-03-22T12:56:32.147Z,102216
2015-03-22T12:56:45.272Z,102209
2015-03-22T12:56:58.178Z,102220
2015-03-22T12:57:11.150Z,102211
2015-03-22T12:57:24.306Z,102202
2015-03-22T12:57:37.244Z,102214
2015-03-22T12:57:50.322Z,102206
2015-03-22T12:58:03.181Z,102206
2015-03-22T12:58:16.168Z,102203
2015-03-22T12:58:29.277Z,102213
2015-03-22T12:58:42.136Z,102204
2015-03-22T12:58:55.136Z,102217
2015-03-22T12:59:08.248Z,102205
2015-03-22T12:59:21.138Z,102206
2015-03-22T12:59:34.060Z,102206
2015-03-22T12:59:47.216Z,102219
2015-03-22T13:00:00.170Z,102225
2015-03-22T13:00:13.031Z,102222
2015-03-22T13:00:26.140Z,102219
2015-03-22T13:00:39.156Z,102213
2015-03-22T13:00:52.312Z,102210
2015-03-22T13:01:05.218Z,102209
2015-03-22T13:01:18.159Z,102212
2015-03-22T13:01:31.331Z,102205
2015-03-22T13:01:44.362Z,102205
2015-03-22T13:01:57.315Z,102214
2015-03-22T13:02:11.208Z,102198
2015-03-22T13:02:24.255Z,102207
2015-03-22T13:02:37.114Z,102192
2015-03-22T13:02:50.177Z,102210
2015-03-22T13:03:03.223Z,102216
2015-03-22T13:03:16.195Z,102203
2015-03-22T13:03:29.133Z,102209
2015-03-22T13:03:41.992Z,102207
2015-03-22T13:03:55.117Z,102194
2015-03-22T13:04:15.306Z,102201
2015-03-22T13:04:28.196Z,102198
2015-03-22T13:04:41.259Z,102205
2015-03-22T13:04:54.384Z,102202
2015-03-22T13:05:07.227Z,102199
2015-03-22T13:05:20.262Z,102196
2015-03-22T13:05:33.355Z,102196
2015-03-22T13:05:46.230Z,102197
2015-03-22T13:05:59.215Z,102197
2015-03-22T13:06:12.232Z,102197
2015-03-22T13:06:25.311Z,102191
2015-03-22T13:06:38.436Z,102198
2015-03-22T13:06:51.264Z,102211
2015-03-22T13:07:04.311Z,102192
2015-03-22T13:07:17.407Z,102196
2015-03-22T13:07:30.267Z,102202
2015-03-22T13:07:43.251Z,102196
2015-03-22T13:07:56.392Z,102199
2015-03-22T13:08:09.315Z,102188
2015-03-22T13:08:22.252Z,102191
2015-03-22T13:08:36.252Z,102200
2015-03-22T13:08:49.252Z,102197
2015-03-22T13:09:02.408Z,102206
2015-03-22T13:09:15.396Z,102186
2015-03-22T13:09:28.411Z,102197
2015-03-22T13:09:41.536Z,102204
2015-03-22T13:09:54.474Z,102201
2015-03-22T13:10:07.411Z,102198
2015-03-22T13:10:20.570Z,102204
2015-03-22T13:10:33.632Z,102195
2015-03-22T13:10:46.523Z,102195
2015-03-22T13:10:59.632Z,102198
2015-03-22T13:11:19.853Z,102190
2015-03-22T13:11:32.712Z,102201
2015-03-22T13:11:45.775Z,102201
2015-03-22T13:11:58.884Z,102192
2015-03-22T13:12:11.809Z,102195
2015-03-22T13:12:24.840Z,102198
2015-03-22T13:12:37.950Z,102195
2015-03-22T13:12:50.793Z,102208
2015-03-22T13:13:03.762Z,102190
2015-03-22T13:13:16.874Z,102192
2015-03-22T13:13:29.781Z,102187
2015-03-22T13:13:42.718Z,102184
2015-03-22T13:13:55.859Z,102187
2015-03-22T13:14:08.843Z,102190
2015-03-22T13:14:21.751Z,102193
2015-03-22T13:14:34.830Z,102191
2015-03-22T13:14:47.814Z,102184
2015-03-22T13:15:00.939Z,102193
2015-03-22T13:15:13.894Z,102184
2015-03-22T13:15:26.816Z,102193
2015-03-22T13:15:39.941Z,102191
2015-03-22T13:15:52.894Z,102191
2015-03-22T13:16:05.753Z,102193
2015-03-22T13:16:18.866Z,102196
2015-03-22T13:16:31.850Z,102196
2015-03-22T13:16:44.694Z,102185
2015-03-22T13:16:57.725Z,102196
2015-03-22T13:17:10.774Z,102206
2015-03-22T13:17:23.743Z,102193
2015-03-22T13:17:36.680Z,102197
2015-03-22T13:17:49.477Z,102191
2015-03-22T13:18:02.602Z,102206
2015-03-22T13:18:15.651Z,102197
2015-03-22T13:18:28.510Z,102182
2015-03-22T13:18:41.604Z,102196
2015-03-22T13:18:54.729Z,102191
2015-03-22T13:19:07.620Z,102191
2015-03-22T13:19:20.669Z,102179
2015-03-22T13:19:33.809Z,102188
2015-03-22T13:19:46.731Z,102188
2015-03-22T13:19:59.778Z,102188
2015-03-22T13:20:12.811Z,102188
2015-03-22T13:20:25.921Z,102182
2015-03-22T13:20:39.030Z,102185
2015-03-22T13:20:51.921Z,102185
2015-03-22T13:21:04.952Z,102185
2015-03-22T13:21:18.080Z,102188
2015-03-22T13:21:31.002Z,102185
2015-03-22T13:21:43.971Z,102179
2015-03-22T13:21:57.064Z,102185
2015-03-22T13:22:09.986Z,102176
2015-03-22T13:22:22.926Z,102185
2015-03-22T13:22:36.144Z,102185
2015-03-22T13:22:49.098Z,102182
2015-03-22T13:23:01.957Z,102173
2015-03-22T13:23:15.085Z,102185
2015-03-22T13:23:28.116Z,102191
2015-03-22T13:23:41.007Z,102182
2015-03-22T13:23:54.116Z,102185
2015-03-22T13:24:07.194Z,102183
2015-03-22T13:24:20.071Z,102191
2015-03-22T13:24:33.071Z,102189
2015-03-22T13:24:46.165Z,102189
2015-03-22T13:24:59.040Z,102186
2015-03-22T13:25:11.996Z,102170
2015-03-22T13:25:25.090Z,102189
2015-03-22T13:25:38.012Z,102189
2015-03-22T13:25:51.090Z,102194
2015-03-22T13:26:03.934Z,102173
2015-03-22T13:26:16.967Z,102180
2015-03-22T13:26:30.076Z,102183
2015-03-22T13:26:42.936Z,102183